Minerva Atlantica — ZCPR7 — position and weather

sailwx.info

Track history (hours):
 
Tides and Currents Weather Stations Pressure Air Temp Water Temp Dewpoint Dewpoint Depression Visibility Wind Speed Wind Dir Waves Ship Positions

Minerva Atlantica

Last reported at 2017-Dec-02 17:15 UTC. Time now 2017-Dec-11 09:45 UTC.
Position N 35°49' E 014°54'.
Warning: this ship's position is 8 days out of date.

Length 250 m; draft 8.3 m.

Type: Ship. MMSI: 319161000.

Date/timePositionNaut miles runAvg speedWind from/ knotsBaromVisibWave heightAir tempDewpointWater temp
2017-Dec-02 17:15N 35°49' E 014°54'512.1
2017-Dec-02 16:52N 35°52' E 014°50'410.3
2017-Dec-02 16:30N 35°55' E 014°48'0 0.8
2017-Dec-02 16:00N 35°55' E 014°47'0 0.1
2017-Dec-02 15:29N 35°55' E 014°48'0 0.1
2017-Dec-02 14:59N 35°55' E 014°48'0 0.0
2017-Dec-02 14:29N 35°55' E 014°48'0 0.0
2017-Dec-02 13:56N 35°55' E 014°48'0 0.0
2017-Dec-02 13:29N 35°55' E 014°48'0 0.1
2017-Dec-02 13:00N 35°55' E 014°48'0 0.0
2017-Dec-02 12:29N 35°55' E 014°48'0 0.0
2017-Dec-02 11:59N 35°55' E 014°48'0 0.0
2017-Dec-02 11:23N 35°55' E 014°48'0 0.0
2017-Dec-02 10:59N 35°55' E 014°48'0 0.0
2017-Dec-02 10:29N 35°55' E 014°48'0 0.0
2017-Dec-02 09:59N 35°55' E 014°48'0 0.1
2017-Dec-02 09:26N 35°55' E 014°48'0 0.0
2017-Dec-02 08:53N 35°55' E 014°47'0 0.1
2017-Dec-02 08:26N 35°55' E 014°48'0 0.2
2017-Dec-02 07:59N 35°55' E 014°47'0 0.1
2017-Dec-02 07:29N 35°55' E 014°48'0 0.2
2017-Dec-02 06:56N 35°55' E 014°47'0 0.2
2017-Dec-02 06:29N 35°55' E 014°48'0 0.1
2017-Dec-02 05:59N 35°55' E 014°47'0 0.0
2017-Dec-02 05:26N 35°55' E 014°48'0 0.0
2017-Dec-02 04:59N 35°55' E 014°48'0 0.0
2017-Dec-02 04:26N 35°55' E 014°48'0 0.1
2017-Dec-02 03:56N 35°55' E 014°48'0 0.1
2017-Dec-02 03:26N 35°55' E 014°47'0 0.4
2017-Dec-02 02:56N 35°55' E 014°48'0 0.5
2017-Dec-02 02:25N 35°55' E 014°47'1 3.5
2017-Dec-02 02:00N 35°56' E 014°46'2 4.8
2017-Dec-02 01:30N 35°58' E 014°45'4 8.4
2017-Dec-02 01:00N 36°02' E 014°42'5 9.0
2017-Dec-02 00:28N 36°06' E 014°39'511.3
2017-Dec-02 00:00N 36°10' E 014°36'713.7
2017-Dec-01 23:30N 36°13' E 014°28'815.3
2017-Dec-01 23:00N 36°15' E 014°19'815.2
2017-Dec-01 22:30N 36°17' E 014°10'814.9
2017-Dec-01 22:00N 36°19' E 014°01'714.9
2017-Dec-01 21:30N 36°21' E 013°52'714.8
2017-Dec-01 21:00N 36°25' E 013°44'814.9
2017-Dec-01 20:30N 36°29' E 013°36'43614.2
2017-Nov-30 13:49N 43°03' E 009°34'514.9
2017-Nov-30 13:30N 43°07' E 009°31'714.5
2017-Nov-30 13:00N 43°13' E 009°26'29 6.2
2017-Nov-30 08:19N 43°18' E 008°46'1 1.6
2017-Nov-30 08:00N 43°18' E 008°46'1 1.6
2017-Nov-30 07:24N 43°18' E 008°44'1 1.6
2017-Nov-30 07:00N 43°18' E 008°43'1 1.5
2017-Nov-30 06:30N 43°18' E 008°42'1 1.5
2017-Nov-30 05:55N 43°18' E 008°41'1 1.5
2017-Nov-30 05:29N 43°18' E 008°40'1 1.6
2017-Nov-30 04:56N 43°19' E 008°39'1 1.7
2017-Nov-30 04:29N 43°19' E 008°38'1 1.8
2017-Nov-30 04:00N 43°19' E 008°37'1 1.9
2017-Nov-30 03:26N 43°20' E 008°36'1 1.8
2017-Nov-30 03:00N 43°20' E 008°35'1 1.7
2017-Nov-30 02:28N 43°20' E 008°34'2 1.6
2017-Nov-30 01:16N 43°20' E 008°31'0 0.6
2017-Nov-30 00:40N 43°21' E 008°31'0 0.4
2017-Nov-30 00:23N 43°21' E 008°30'0 0.4
2017-Nov-29 23:58N 43°21' E 008°30'0 0.1
2017-Nov-29 23:11N 43°21' E 008°30'0 0.2
2017-Nov-29 22:37N 43°21' E 008°30'0 0.2
2017-Nov-29 22:29N 43°21' E 008°30'0 0.2
2017-Nov-29 21:53N 43°21' E 008°30'0 0.4
2017-Nov-29 20:42N 43°21' E 008°30'0 0.5
2017-Nov-29 20:30N 43°21' E 008°30'0 0.4
2017-Nov-29 20:01N 43°22' E 008°30'0 0.2
2017-Nov-29 19:16N 43°22' E 008°30'3 1.1
2017-Nov-29 16:59N 43°24' E 008°31'5 7.9
2017-Nov-29 16:24N 43°24' E 008°37'3 7.6
2017-Nov-29 15:58N 43°25' E 008°42'3 7.5
2017-Nov-29 15:31N 43°25' E 008°46'4 7.6
2017-Nov-29 15:01N 43°25' E 008°52'4 7.8
2017-Nov-29 14:30N 43°25' E 008°57'4 7.8
2017-Nov-29 14:00N 43°25' E 009°02'4 7.6
2017-Nov-29 13:30N 43°25' E 009°08'4 7.4
2017-Nov-29 12:59N 43°25' E 009°13'3 7.1
2017-Nov-29 12:31N 43°25' E 009°17'0 0.9
2017-Nov-29 12:00N 43°25' E 009°18'1 1.4
2017-Nov-29 11:30N 43°25' E 009°17'1 1.2
2017-Nov-29 11:00N 43°25' E 009°16'1 1.3
2017-Nov-29 10:30N 43°25' E 009°15'1 1.3
2017-Nov-29 10:00N 43°25' E 009°14'1 1.3
2017-Nov-29 09:28N 43°25' E 009°13'1 1.4
2017-Nov-29 09:00N 43°25' E 009°12'1 1.3
2017-Nov-29 08:30N 43°25' E 009°11'1 1.1
2017-Nov-29 08:00N 43°25' E 009°11'1 1.1
2017-Nov-29 07:31N 43°25' E 009°10'1 1.1
2017-Nov-29 07:00N 43°25' E 009°09'1 1.2
2017-Nov-29 06:30N 43°25' E 009°08'1 1.3
2017-Nov-29 06:01N 43°25' E 009°07'1 1.3
2017-Nov-29 05:30N 43°26' E 009°06'1 1.5
2017-Nov-29 05:01N 43°26' E 009°06'1 1.4
2017-Nov-29 04:29N 43°26' E 009°05'1 1.5
2017-Nov-29 04:00N 43°26' E 009°04'1 1.6
2017-Nov-29 03:31N 43°26' E 009°02'1 1.6
2017-Nov-29 03:00N 43°26' E 009°01'1 1.5
2017-Nov-29 02:31N 43°26' E 009°00'1 1.6
2017-Nov-29 02:00N 43°26' E 008°59'1 1.9
2017-Nov-29 01:30N 43°26' E 008°58'1 1.7
2017-Nov-29 01:00N 43°25' E 008°57'1 1.5
2017-Nov-29 00:29N 43°25' E 008°56'1 1.6
2017-Nov-28 23:59N 43°25' E 008°55'1 1.7
2017-Nov-28 23:30N 43°25' E 008°54'1 1.7
2017-Nov-28 23:00N 43°24' E 008°53'1 2.0
2017-Nov-28 22:28N 43°24' E 008°52'1 2.1
2017-Nov-28 21:58N 43°23' E 008°50'1 1.9
2017-Nov-28 21:30N 43°23' E 008°49'1 2.0
2017-Nov-28 20:59N 43°23' E 008°48'1 2.1
2017-Nov-28 20:30N 43°22' E 008°46'1 2.2
2017-Nov-28 20:01N 43°22' E 008°45'1 2.3
2017-Nov-28 19:30N 43°22' E 008°43'1 2.1
2017-Nov-28 19:00N 43°22' E 008°42'1 2.2
2017-Nov-28 18:30N 43°22' E 008°40'1 2.2
2017-Nov-28 18:00N 43°22' E 008°39'2 2.1
2017-Nov-28 17:07N 43°21' E 008°36'3 2.4
2017-Nov-28 15:57N 43°21' E 008°33'9 6.8
2017-Nov-28 14:35N 43°30' E 008°38'1 7.6
2017-Nov-28 14:30N 43°30' E 008°39'4 7.5
2017-Nov-28 14:00N 43°33' E 008°42'4 7.2
2017-Nov-28 13:30N 43°36' E 008°44'4 7.1
2017-Nov-28 13:00N 43°39' E 008°47'4 7.4
2017-Nov-28 12:30N 43°43' E 008°50'1 1.6
2017-Nov-28 12:01N 43°43' E 008°51'1 1.5
2017-Nov-28 11:28N 43°42' E 008°51'1 1.6
2017-Nov-28 11:00N 43°42' E 008°50'1 1.6
2017-Nov-28 10:30N 43°41' E 008°49'1 1.4
2017-Nov-28 10:01N 43°40' E 008°49'1 1.4
2017-Nov-28 09:31N 43°40' E 008°48'1 1.5
2017-Nov-28 09:00N 43°39' E 008°47'1 1.5
2017-Nov-28 08:29N 43°39' E 008°47'1 1.4
2017-Nov-28 07:59N 43°38' E 008°46'1 1.4
2017-Nov-28 07:30N 43°37' E 008°46'1 1.5
2017-Nov-28 07:00N 43°37' E 008°46'1 1.5
2017-Nov-28 06:30N 43°36' E 008°45'1 1.5
2017-Nov-28 05:46N 43°35' E 008°45'0 1.3
2017-Nov-28 05:28N 43°34' E 008°45'1 1.2
2017-Nov-28 04:29N 43°33' E 008°44'1 1.2
2017-Nov-28 04:00N 43°33' E 008°44'1 1.1
2017-Nov-28 03:28N 43°32' E 008°44'0 1.0
2017-Nov-28 03:01N 43°32' E 008°43'0 0.9
2017-Nov-28 02:30N 43°32' E 008°43'0 0.8
2017-Nov-28 02:00N 43°31' E 008°43'0 0.6
2017-Nov-28 01:23N 43°31' E 008°43'0 0.7
2017-Nov-28 01:00N 43°31' E 008°42'0 0.8
2017-Nov-28 00:25N 43°30' E 008°42'0 0.8
2017-Nov-28 00:00N 43°30' E 008°42'0 0.8
2017-Nov-27 23:30N 43°30' E 008°42'0 0.8
2017-Nov-27 23:00N 43°29' E 008°41'0 0.8
2017-Nov-27 22:31N 43°29' E 008°41'0 0.7
2017-Nov-27 21:58N 43°29' E 008°41'0 0.6
2017-Nov-27 21:30N 43°28' E 008°41'0 0.6
2017-Nov-27 21:00N 43°28' E 008°40'0 0.5
2017-Nov-27 20:30N 43°28' E 008°40'0 0.4
2017-Nov-27 19:39N 43°28' E 008°40'0 0.3
2017-Nov-27 19:30N 43°28' E 008°40'0 0.3
2017-Nov-27 19:00N 43°27' E 008°40'0 0.4
2017-Nov-27 18:30N 43°27' E 008°40'0 0.6
2017-Nov-27 18:00N 43°27' E 008°40'0 0.9
2017-Nov-27 17:30N 43°27' E 008°40'3 3.2
2017-Nov-27 16:32N 43°25' E 008°43'0 8.4
2017-Nov-27 16:30N 43°25' E 008°44'11 7.7
2017-Nov-27 15:01N 43°20' E 008°58'0 4.1
2017-Nov-27 15:01N 43°20' E 008°58'1 1.1
2017-Nov-27 14:30N 43°21' E 008°57'0 0.7
2017-Nov-27 13:58N 43°21' E 008°57'0 0.6
2017-Nov-27 13:31N 43°21' E 008°57'0 0.6
2017-Nov-27 13:00N 43°21' E 008°56'0 0.7
2017-Nov-27 12:30N 43°21' E 008°56'0 0.8
2017-Nov-27 12:01N 43°21' E 008°55'0 0.9
2017-Nov-27 11:31N 43°21' E 008°55'0 1.0
2017-Nov-27 11:00N 43°22' E 008°54'1 1.1
2017-Nov-27 10:31N 43°22' E 008°53'1 1.8
2017-Nov-27 10:01N 43°21' E 008°52'2 4.5
2017-Nov-27 09:30N 43°20' E 008°50'3 5.0
2017-Nov-27 08:59N 43°19' E 008°47'2 4.8
2017-Nov-27 08:30N 43°17' E 008°44'2 4.7
2017-Nov-27 08:00N 43°16' E 008°42'8 0.5
2017-Nov-26 15:09N 43°12' E 008°52'1 5.4
2017-Nov-26 14:59N 43°13' E 008°52'3 5.2
2017-Nov-26 14:30N 43°15' E 008°52'3 5.4
2017-Nov-26 14:00N 43°18' E 008°51'3 5.2
2017-Nov-26 13:30N 43°21' E 008°51'3 5.7
2017-Nov-26 13:00N 43°24' E 008°51'3 6.2
2017-Nov-26 12:30N 43°27' E 008°51'3 6.3
2017-Nov-26 12:00N 43°30' E 008°51'3 6.1
2017-Nov-26 11:31N 43°33' E 008°51'3 5.9
2017-Nov-26 11:00N 43°36' E 008°51'2 4.6
2017-Nov-26 10:30N 43°38' E 008°50'1 2.3
2017-Nov-26 10:00N 43°37' E 008°49'2 4.6
2017-Nov-26 09:30N 43°35' E 008°48'2 4.5
2017-Nov-26 09:00N 43°33' E 008°48'2 4.3
2017-Nov-26 08:30N 43°31' E 008°47'2 4.0
2017-Nov-26 08:00N 43°29' E 008°47'2 4.1
2017-Nov-26 07:30N 43°27' E 008°47'2 4.6
2017-Nov-26 07:00N 43°24' E 008°47'2 4.4
2017-Nov-26 06:31N 43°22' E 008°46'2 3.8
2017-Nov-26 05:52N 43°21' E 008°49'2 5.5
2017-Nov-26 05:30N 43°21' E 008°52'3 5.3
2017-Nov-26 05:01N 43°21' E 008°56'3 5.0
2017-Nov-26 04:30N 43°22' E 008°59'3 5.1
2017-Nov-26 04:00N 43°23' E 009°02'3 5.0
2017-Nov-26 03:31N 43°23' E 009°05'2 4.3
2017-Nov-26 03:01N 43°24' E 009°08'2 3.8
2017-Nov-26 02:30N 43°24' E 009°11'2 3.8
2017-Nov-26 02:00N 43°24' E 009°14'2 3.1
2017-Nov-26 01:31N 43°24' E 009°16'1 1.9
2017-Nov-26 01:00N 43°24' E 009°17'1 1.8
2017-Nov-26 00:30N 43°24' E 009°18'2 3.8
2017-Nov-26 00:00N 43°25' E 009°16'4 7.1
2017-Nov-25 23:30N 43°24' E 009°11'3 6.9
2017-Nov-25 23:01N 43°24' E 009°07'4 7.1
2017-Nov-25 22:31N 43°23' E 009°02'4 7.1
2017-Nov-25 22:00N 43°22' E 008°57'3 5.3
2017-Nov-25 21:29N 43°22' E 008°53'1 3.0
2017-Nov-25 21:00N 43°22' E 008°51'1 2.9
2017-Nov-25 20:30N 43°22' E 008°49'1 2.8
2017-Nov-25 20:00N 43°22' E 008°47'1 2.7
2017-Nov-25 19:30N 43°23' E 008°45'1 2.7
2017-Nov-25 19:00N 43°23' E 008°44'5 9.8
2017-Nov-25 18:30N 43°28' E 008°43'612.9
2017-Nov-25 18:00N 43°35' E 008°43'613.0
2017-Nov-25 17:30N 43°41' E 008°42'713.1
2017-Nov-25 17:00N 43°48' E 008°41'713.3
2017-Nov-25 16:30N 43°54' E 008°41'713.0
2017-Nov-25 16:00N 44°01' E 008°40'713.4
2017-Nov-25 15:31N 44°07' E 008°39'612.6
2017-Nov-25 15:00N 44°13' E 008°35'5 9.6
2017-Nov-25 14:30N 44°16' E 008°30'2 2.9
2017-Nov-25 13:58N 44°16' E 008°28'0 0.3
2017-Nov-25 13:28N 44°17' E 008°28'0 0.3
2017-Nov-25 12:58N 44°17' E 008°28'0 0.2
2017-Nov-25 12:28N 44°17' E 008°28'0 0.0
2017-Nov-25 11:58N 44°17' E 008°28'0 0.0
2017-Nov-24 11:16N 44°17' E 008°28'0 0.1
2017-Nov-24 11:00N 44°17' E 008°28'0 0.6
2017-Nov-24 10:30N 44°16' E 008°28'1 2.0
2017-Nov-24 10:00N 44°16' E 008°28'1 1.9
2017-Nov-24 09:30N 44°16' E 008°30'1 1.5
2017-Nov-24 09:00N 44°16' E 008°30'2 3.8
2017-Nov-24 08:30N 44°14' E 008°31'612.2
2017-Nov-24 08:00N 44°09' E 008°36'611.4
2017-Nov-24 07:30N 44°04' E 008°35'4 7.7
2017-Nov-24 07:00N 44°00' E 008°32'612.4
2017-Nov-24 06:30N 43°55' E 008°29'612.8
2017-Nov-24 06:00N 43°49' E 008°25'32012.7
2017-Nov-23 04:51N 40°19' E 003°00'613.2
2017-Nov-23 04:23N 40°15' E 002°54'713.6
2017-Nov-23 03:54N 40°11' E 002°47'613.6
2017-Nov-23 03:29N 40°08' E 002°41'  
Track history (hours):
 
Tides and Currents Weather Stations Pressure Air Temp Water Temp Dewpoint Dewpoint Depression Visibility Wind Speed Wind Dir Waves Ship Positions

Minerva Atlantica

Last reported at 2017-Dec-02 17:15 UTC. Time now 2017-Dec-11 09:45 UTC.
Position N 35°49' E 014°54'.
Warning: this ship's position is 8 days out of date.

Length 250 m; draft 8.3 m.

Type: Ship. MMSI: 319161000.

Date/timePositionNaut miles runAvg speedWind from/ knotsBaromVisibWave heightAir tempDewpointWater temp
2017-Dec-02 17:15N 35°49' E 014°54'512.1
2017-Dec-02 16:52N 35°52' E 014°50'410.3
2017-Dec-02 16:30N 35°55' E 014°48'0 0.8
2017-Dec-02 16:00N 35°55' E 014°47'0 0.1
2017-Dec-02 15:29N 35°55' E 014°48'0 0.1
2017-Dec-02 14:59N 35°55' E 014°48'0 0.0
2017-Dec-02 14:29N 35°55' E 014°48'0 0.0
2017-Dec-02 13:56N 35°55' E 014°48'0 0.0
2017-Dec-02 13:29N 35°55' E 014°48'0 0.1
2017-Dec-02 13:00N 35°55' E 014°48'0 0.0
2017-Dec-02 12:29N 35°55' E 014°48'0 0.0
2017-Dec-02 11:59N 35°55' E 014°48'0 0.0
2017-Dec-02 11:23N 35°55' E 014°48'0 0.0
2017-Dec-02 10:59N 35°55' E 014°48'0 0.0
2017-Dec-02 10:29N 35°55' E 014°48'0 0.0
2017-Dec-02 09:59N 35°55' E 014°48'0 0.1
2017-Dec-02 09:26N 35°55' E 014°48'0 0.0
2017-Dec-02 08:53N 35°55' E 014°47'0 0.1
2017-Dec-02 08:26N 35°55' E 014°48'0 0.2
2017-Dec-02 07:59N 35°55' E 014°47'0 0.1
2017-Dec-02 07:29N 35°55' E 014°48'0 0.2
2017-Dec-02 06:56N 35°55' E 014°47'0 0.2
2017-Dec-02 06:29N 35°55' E 014°48'0 0.1
2017-Dec-02 05:59N 35°55' E 014°47'0 0.0
2017-Dec-02 05:26N 35°55' E 014°48'0 0.0
2017-Dec-02 04:59N 35°55' E 014°48'0 0.0
2017-Dec-02 04:26N 35°55' E 014°48'0 0.1
2017-Dec-02 03:56N 35°55' E 014°48'0 0.1
2017-Dec-02 03:26N 35°55' E 014°47'0 0.4
2017-Dec-02 02:56N 35°55' E 014°48'0 0.5
2017-Dec-02 02:25N 35°55' E 014°47'1 3.5
2017-Dec-02 02:00N 35°56' E 014°46'2 4.8
2017-Dec-02 01:30N 35°58' E 014°45'4 8.4
2017-Dec-02 01:00N 36°02' E 014°42'5 9.0
2017-Dec-02 00:28N 36°06' E 014°39'511.3
2017-Dec-02 00:00N 36°10' E 014°36'713.7
2017-Dec-01 23:30N 36°13' E 014°28'815.3
2017-Dec-01 23:00N 36°15' E 014°19'815.2
2017-Dec-01 22:30N 36°17' E 014°10'814.9
2017-Dec-01 22:00N 36°19' E 014°01'714.9
2017-Dec-01 21:30N 36°21' E 013°52'714.8
2017-Dec-01 21:00N 36°25' E 013°44'814.9
2017-Dec-01 20:30N 36°29' E 013°36'43614.2
2017-Nov-30 13:49N 43°03' E 009°34'514.9
2017-Nov-30 13:30N 43°07' E 009°31'714.5
2017-Nov-30 13:00N 43°13' E 009°26'29 6.2
2017-Nov-30 08:19N 43°18' E 008°46'1 1.6
2017-Nov-30 08:00N 43°18' E 008°46'1 1.6
2017-Nov-30 07:24N 43°18' E 008°44'1 1.6
2017-Nov-30 07:00N 43°18' E 008°43'1 1.5
2017-Nov-30 06:30N 43°18' E 008°42'1 1.5
2017-Nov-30 05:55N 43°18' E 008°41'1 1.5
2017-Nov-30 05:29N 43°18' E 008°40'1 1.6
2017-Nov-30 04:56N 43°19' E 008°39'1 1.7
2017-Nov-30 04:29N 43°19' E 008°38'1 1.8
2017-Nov-30 04:00N 43°19' E 008°37'1 1.9
2017-Nov-30 03:26N 43°20' E 008°36'1 1.8
2017-Nov-30 03:00N 43°20' E 008°35'1 1.7
2017-Nov-30 02:28N 43°20' E 008°34'2 1.6
2017-Nov-30 01:16N 43°20' E 008°31'0 0.6
2017-Nov-30 00:40N 43°21' E 008°31'0 0.4
2017-Nov-30 00:23N 43°21' E 008°30'0 0.4
2017-Nov-29 23:58N 43°21' E 008°30'0 0.1
2017-Nov-29 23:11N 43°21' E 008°30'0 0.2
2017-Nov-29 22:37N 43°21' E 008°30'0 0.2
2017-Nov-29 22:29N 43°21' E 008°30'0 0.2
2017-Nov-29 21:53N 43°21' E 008°30'0 0.4
2017-Nov-29 20:42N 43°21' E 008°30'0 0.5
2017-Nov-29 20:30N 43°21' E 008°30'0 0.4
2017-Nov-29 20:01N 43°22' E 008°30'0 0.2
2017-Nov-29 19:16N 43°22' E 008°30'3 1.1
2017-Nov-29 16:59N 43°24' E 008°31'5 7.9
2017-Nov-29 16:24N 43°24' E 008°37'3 7.6
2017-Nov-29 15:58N 43°25' E 008°42'3 7.5
2017-Nov-29 15:31N 43°25' E 008°46'4 7.6
2017-Nov-29 15:01N 43°25' E 008°52'4 7.8
2017-Nov-29 14:30N 43°25' E 008°57'4 7.8
2017-Nov-29 14:00N 43°25' E 009°02'4 7.6
2017-Nov-29 13:30N 43°25' E 009°08'4 7.4
2017-Nov-29 12:59N 43°25' E 009°13'3 7.1
2017-Nov-29 12:31N 43°25' E 009°17'0 0.9
2017-Nov-29 12:00N 43°25' E 009°18'1 1.4
2017-Nov-29 11:30N 43°25' E 009°17'1 1.2
2017-Nov-29 11:00N 43°25' E 009°16'1 1.3
2017-Nov-29 10:30N 43°25' E 009°15'1 1.3
2017-Nov-29 10:00N 43°25' E 009°14'1 1.3
2017-Nov-29 09:28N 43°25' E 009°13'1 1.4
2017-Nov-29 09:00N 43°25' E 009°12'1 1.3
2017-Nov-29 08:30N 43°25' E 009°11'1 1.1
2017-Nov-29 08:00N 43°25' E 009°11'1 1.1
2017-Nov-29 07:31N 43°25' E 009°10'1 1.1
2017-Nov-29 07:00N 43°25' E 009°09'1 1.2
2017-Nov-29 06:30N 43°25' E 009°08'1 1.3
2017-Nov-29 06:01N 43°25' E 009°07'1 1.3
2017-Nov-29 05:30N 43°26' E 009°06'1 1.5
2017-Nov-29 05:01N 43°26' E 009°06'1 1.4
2017-Nov-29 04:29N 43°26' E 009°05'1 1.5
2017-Nov-29 04:00N 43°26' E 009°04'1 1.6
2017-Nov-29 03:31N 43°26' E 009°02'1 1.6
2017-Nov-29 03:00N 43°26' E 009°01'1 1.5
2017-Nov-29 02:31N 43°26' E 009°00'1 1.6
2017-Nov-29 02:00N 43°26' E 008°59'1 1.9
2017-Nov-29 01:30N 43°26' E 008°58'1 1.7
2017-Nov-29 01:00N 43°25' E 008°57'1 1.5
2017-Nov-29 00:29N 43°25' E 008°56'1 1.6
2017-Nov-28 23:59N 43°25' E 008°55'1 1.7
2017-Nov-28 23:30N 43°25' E 008°54'1 1.7
2017-Nov-28 23:00N 43°24' E 008°53'1 2.0
2017-Nov-28 22:28N 43°24' E 008°52'1 2.1
2017-Nov-28 21:58N 43°23' E 008°50'1 1.9
2017-Nov-28 21:30N 43°23' E 008°49'1 2.0
2017-Nov-28 20:59N 43°23' E 008°48'1 2.1
2017-Nov-28 20:30N 43°22' E 008°46'1 2.2
2017-Nov-28 20:01N 43°22' E 008°45'1 2.3
2017-Nov-28 19:30N 43°22' E 008°43'1 2.1
2017-Nov-28 19:00N 43°22' E 008°42'1 2.2
2017-Nov-28 18:30N 43°22' E 008°40'1 2.2
2017-Nov-28 18:00N 43°22' E 008°39'2 2.1
2017-Nov-28 17:07N 43°21' E 008°36'3 2.4
2017-Nov-28 15:57N 43°21' E 008°33'9 6.8
2017-Nov-28 14:35N 43°30' E 008°38'1 7.6
2017-Nov-28 14:30N 43°30' E 008°39'4 7.5
2017-Nov-28 14:00N 43°33' E 008°42'4 7.2
2017-Nov-28 13:30N 43°36' E 008°44'4 7.1
2017-Nov-28 13:00N 43°39' E 008°47'4 7.4
2017-Nov-28 12:30N 43°43' E 008°50'1 1.6
2017-Nov-28 12:01N 43°43' E 008°51'1 1.5
2017-Nov-28 11:28N 43°42' E 008°51'1 1.6
2017-Nov-28 11:00N 43°42' E 008°50'1 1.6
2017-Nov-28 10:30N 43°41' E 008°49'1 1.4
2017-Nov-28 10:01N 43°40' E 008°49'1 1.4
2017-Nov-28 09:31N 43°40' E 008°48'1 1.5
2017-Nov-28 09:00N 43°39' E 008°47'1 1.5
2017-Nov-28 08:29N 43°39' E 008°47'1 1.4
2017-Nov-28 07:59N 43°38' E 008°46'1 1.4
2017-Nov-28 07:30N 43°37' E 008°46'1 1.5
2017-Nov-28 07:00N 43°37' E 008°46'1 1.5
2017-Nov-28 06:30N 43°36' E 008°45'1 1.5
2017-Nov-28 05:46N 43°35' E 008°45'0 1.3
2017-Nov-28 05:28N 43°34' E 008°45'1 1.2
2017-Nov-28 04:29N 43°33' E 008°44'1 1.2
2017-Nov-28 04:00N 43°33' E 008°44'1 1.1
2017-Nov-28 03:28N 43°32' E 008°44'0 1.0
2017-Nov-28 03:01N 43°32' E 008°43'0 0.9
2017-Nov-28 02:30N 43°32' E 008°43'0 0.8
2017-Nov-28 02:00N 43°31' E 008°43'0 0.6
2017-Nov-28 01:23N 43°31' E 008°43'0 0.7
2017-Nov-28 01:00N 43°31' E 008°42'0 0.8
2017-Nov-28 00:25N 43°30' E 008°42'0 0.8
2017-Nov-28 00:00N 43°30' E 008°42'0 0.8
2017-Nov-27 23:30N 43°30' E 008°42'0 0.8
2017-Nov-27 23:00N 43°29' E 008°41'0 0.8
2017-Nov-27 22:31N 43°29' E 008°41'0 0.7
2017-Nov-27 21:58N 43°29' E 008°41'0 0.6
2017-Nov-27 21:30N 43°28' E 008°41'0 0.6
2017-Nov-27 21:00N 43°28' E 008°40'0 0.5
2017-Nov-27 20:30N 43°28' E 008°40'0 0.4
2017-Nov-27 19:39N 43°28' E 008°40'0 0.3
2017-Nov-27 19:30N 43°28' E 008°40'0 0.3
2017-Nov-27 19:00N 43°27' E 008°40'0 0.4
2017-Nov-27 18:30N 43°27' E 008°40'0 0.6
2017-Nov-27 18:00N 43°27' E 008°40'0 0.9
2017-Nov-27 17:30N 43°27' E 008°40'3 3.2
2017-Nov-27 16:32N 43°25' E 008°43'0 8.4
2017-Nov-27 16:30N 43°25' E 008°44'11 7.7
2017-Nov-27 15:01N 43°20' E 008°58'0 4.1
2017-Nov-27 15:01N 43°20' E 008°58'1 1.1
2017-Nov-27 14:30N 43°21' E 008°57'0 0.7
2017-Nov-27 13:58N 43°21' E 008°57'0 0.6
2017-Nov-27 13:31N 43°21' E 008°57'0 0.6
2017-Nov-27 13:00N 43°21' E 008°56'0 0.7
2017-Nov-27 12:30N 43°21' E 008°56'0 0.8
2017-Nov-27 12:01N 43°21' E 008°55'0 0.9
2017-Nov-27 11:31N 43°21' E 008°55'0 1.0
2017-Nov-27 11:00N 43°22' E 008°54'1 1.1
2017-Nov-27 10:31N 43°22' E 008°53'1 1.8
2017-Nov-27 10:01N 43°21' E 008°52'2 4.5
2017-Nov-27 09:30N 43°20' E 008°50'3 5.0
2017-Nov-27 08:59N 43°19' E 008°47'2 4.8
2017-Nov-27 08:30N 43°17' E 008°44'2 4.7
2017-Nov-27 08:00N 43°16' E 008°42'8 0.5
2017-Nov-26 15:09N 43°12' E 008°52'1 5.4
2017-Nov-26 14:59N 43°13' E 008°52'3 5.2
2017-Nov-26 14:30N 43°15' E 008°52'3 5.4
2017-Nov-26 14:00N 43°18' E 008°51'3 5.2
2017-Nov-26 13:30N 43°21' E 008°51'3 5.7
2017-Nov-26 13:00N 43°24' E 008°51'3 6.2
2017-Nov-26 12:30N 43°27' E 008°51'3 6.3
2017-Nov-26 12:00N 43°30' E 008°51'3 6.1
2017-Nov-26 11:31N 43°33' E 008°51'3 5.9
2017-Nov-26 11:00N 43°36' E 008°51'2 4.6
2017-Nov-26 10:30N 43°38' E 008°50'1 2.3
2017-Nov-26 10:00N 43°37' E 008°49'2 4.6
2017-Nov-26 09:30N 43°35' E 008°48'2 4.5
2017-Nov-26 09:00N 43°33' E 008°48'2 4.3
2017-Nov-26 08:30N 43°31' E 008°47'2 4.0
2017-Nov-26 08:00N 43°29' E 008°47'2 4.1
2017-Nov-26 07:30N 43°27' E 008°47'2 4.6
2017-Nov-26 07:00N 43°24' E 008°47'2 4.4
2017-Nov-26 06:31N 43°22' E 008°46'2 3.8
2017-Nov-26 05:52N 43°21' E 008°49'2 5.5
2017-Nov-26 05:30N 43°21' E 008°52'3 5.3
2017-Nov-26 05:01N 43°21' E 008°56'3 5.0
2017-Nov-26 04:30N 43°22' E 008°59'3 5.1
2017-Nov-26 04:00N 43°23' E 009°02'3 5.0
2017-Nov-26 03:31N 43°23' E 009°05'2 4.3
2017-Nov-26 03:01N 43°24' E 009°08'2 3.8
2017-Nov-26 02:30N 43°24' E 009°11'2 3.8
2017-Nov-26 02:00N 43°24' E 009°14'2 3.1
2017-Nov-26 01:31N 43°24' E 009°16'1 1.9
2017-Nov-26 01:00N 43°24' E 009°17'1 1.8
2017-Nov-26 00:30N 43°24' E 009°18'2 3.8
2017-Nov-26 00:00N 43°25' E 009°16'4 7.1
2017-Nov-25 23:30N 43°24' E 009°11'3 6.9
2017-Nov-25 23:01N 43°24' E 009°07'4 7.1
2017-Nov-25 22:31N 43°23' E 009°02'4 7.1
2017-Nov-25 22:00N 43°22' E 008°57'3 5.3
2017-Nov-25 21:29N 43°22' E 008°53'1 3.0
2017-Nov-25 21:00N 43°22' E 008°51'1 2.9
2017-Nov-25 20:30N 43°22' E 008°49'1 2.8
2017-Nov-25 20:00N 43°22' E 008°47'1 2.7
2017-Nov-25 19:30N 43°23' E 008°45'1 2.7
2017-Nov-25 19:00N 43°23' E 008°44'5 9.8
2017-Nov-25 18:30N 43°28' E 008°43'612.9
2017-Nov-25 18:00N 43°35' E 008°43'613.0
2017-Nov-25 17:30N 43°41' E 008°42'713.1
2017-Nov-25 17:00N 43°48' E 008°41'713.3
2017-Nov-25 16:30N 43°54' E 008°41'713.0
2017-Nov-25 16:00N 44°01' E 008°40'713.4
2017-Nov-25 15:31N 44°07' E 008°39'612.6
2017-Nov-25 15:00N 44°13' E 008°35'5 9.6
2017-Nov-25 14:30N 44°16' E 008°30'2 2.9
2017-Nov-25 13:58N 44°16' E 008°28'0 0.3
2017-Nov-25 13:28N 44°17' E 008°28'0 0.3
2017-Nov-25 12:58N 44°17' E 008°28'0 0.2
2017-Nov-25 12:28N 44°17' E 008°28'0 0.0
2017-Nov-25 11:58N 44°17' E 008°28'0 0.0
2017-Nov-24 11:16N 44°17' E 008°28'0 0.1
2017-Nov-24 11:00N 44°17' E 008°28'0 0.6
2017-Nov-24 10:30N 44°16' E 008°28'1 2.0
2017-Nov-24 10:00N 44°16' E 008°28'1 1.9
2017-Nov-24 09:30N 44°16' E 008°30'1 1.5
2017-Nov-24 09:00N 44°16' E 008°30'2 3.8
2017-Nov-24 08:30N 44°14' E 008°31'612.2
2017-Nov-24 08:00N 44°09' E 008°36'611.4
2017-Nov-24 07:30N 44°04' E 008°35'4 7.7
2017-Nov-24 07:00N 44°00' E 008°32'612.4
2017-Nov-24 06:30N 43°55' E 008°29'612.8
2017-Nov-24 06:00N 43°49' E 008°25'32012.7
2017-Nov-23 04:51N 40°19' E 003°00'613.2
2017-Nov-23 04:23N 40°15' E 002°54'713.6
2017-Nov-23 03:54N 40°11' E 002°47'613.6
2017-Nov-23 03:29N 40°08' E 002°41'  

Dump ship's entire track history